createdAt,value
2022-12-03T00:00:56.046Z,23.00
2022-12-03T00:03:24.732Z,21.60
2022-12-03T00:05:53.063Z,23.60
2022-12-03T00:08:21.467Z,22.70
2022-12-03T00:10:50.014Z,23.80
2022-12-03T00:13:18.216Z,23.70
2022-12-03T00:15:46.658Z,21.80
2022-12-03T00:18:15.384Z,23.10
2022-12-03T00:20:43.879Z,23.10
2022-12-03T00:23:12.114Z,22.90
2022-12-03T00:25:40.616Z,23.50
2022-12-03T00:28:08.772Z,24.40
2022-12-03T00:30:37.155Z,22.50
2022-12-03T00:33:05.637Z,23.30
2022-12-03T00:35:34.198Z,24.60
2022-12-03T00:38:02.584Z,26.20
2022-12-03T00:40:31.159Z,24.90
2022-12-03T00:42:59.579Z,27.10
2022-12-03T00:45:27.817Z,26.60
2022-12-03T00:47:56.294Z,26.50
2022-12-03T00:50:24.525Z,27.50
2022-12-03T00:52:52.952Z,28.00
2022-12-03T00:55:21.833Z,29.90
2022-12-03T00:57:50.005Z,29.10
2022-12-03T01:00:18.805Z,28.50
2022-12-03T01:02:47.162Z,30.90
2022-12-03T01:05:15.615Z,30.00
2022-12-03T01:07:45.879Z,32.20
2022-12-03T01:10:15.171Z,30.70
2022-12-03T01:12:43.766Z,29.60
2022-12-03T01:15:12.110Z,31.10
2022-12-03T01:20:27.349Z,30.30
2022-12-03T01:22:55.768Z,30.00
2022-12-03T01:25:24.354Z,28.90
2022-12-03T01:27:53.581Z,30.40
2022-12-03T01:30:21.887Z,30.40
2022-12-03T01:32:50.158Z,31.00
2022-12-03T01:35:18.839Z,30.50
2022-12-03T01:37:46.965Z,30.90
2022-12-03T01:40:20.440Z,30.30
2022-12-03T01:42:48.876Z,30.70
2022-12-03T01:45:26.230Z,30.20
2022-12-03T01:47:55.292Z,32.00
2022-12-03T01:50:30.639Z,30.60
2022-12-03T01:53:01.964Z,30.90
2022-12-03T01:55:30.782Z,30.80
2022-12-03T01:58:03.338Z,29.90
2022-12-03T02:00:32.328Z,28.20
2022-12-03T02:03:03.841Z,28.90
2022-12-03T02:05:33.623Z,28.20
2022-12-03T02:08:02.066Z,27.00
2022-12-03T02:10:34.801Z,28.10
2022-12-03T02:13:10.466Z,28.90
2022-12-03T02:15:40.201Z,27.40
2022-12-03T02:18:09.534Z,27.90
2022-12-03T02:21:06.076Z,27.50
2022-12-03T02:23:52.827Z,28.60
2022-12-03T02:26:21.383Z,26.80
2022-12-03T02:28:50.021Z,29.00
2022-12-03T02:31:18.439Z,29.40
2022-12-03T02:33:46.694Z,29.50
2022-12-03T02:36:15.240Z,27.20
2022-12-03T02:38:45.367Z,27.80
2022-12-03T02:41:37.615Z,28.40
2022-12-03T02:44:07.298Z,26.90
2022-12-03T02:46:36.366Z,27.40
2022-12-03T02:49:06.209Z,28.80
2022-12-03T02:51:34.943Z,28.40
2022-12-03T02:54:03.709Z,26.60
2022-12-03T02:56:33.152Z,27.90
2022-12-03T02:59:05.113Z,27.00
2022-12-03T03:01:35.181Z,27.60
2022-12-03T03:04:04.686Z,26.50
2022-12-03T03:06:33.647Z,26.10
2022-12-03T03:09:03.072Z,25.40
2022-12-03T03:11:31.640Z,26.70
2022-12-03T03:14:02.846Z,28.60
2022-12-03T03:16:33.677Z,28.20
2022-12-03T03:19:02.426Z,27.70
2022-12-03T03:21:30.701Z,27.60
2022-12-03T03:23:59.307Z,27.40
2022-12-03T03:26:27.795Z,28.10
2022-12-03T03:28:57.701Z,27.60
2022-12-03T03:31:26.426Z,28.40
2022-12-03T03:33:54.641Z,27.00
2022-12-03T03:36:23.405Z,29.10
2022-12-03T03:38:52.427Z,26.90
2022-12-03T03:41:21.635Z,28.70
2022-12-03T03:43:50.274Z,28.70
2022-12-03T03:46:19.994Z,27.80
2022-12-03T03:48:50.318Z,26.60
2022-12-03T03:51:19.752Z,28.00
2022-12-03T03:53:49.956Z,25.40
2022-12-03T03:56:20.558Z,25.30
2022-12-03T03:58:48.848Z,25.80
2022-12-03T04:01:18.448Z,27.70
2022-12-03T04:03:46.989Z,27.50
2022-12-03T04:06:16.157Z,26.10
2022-12-03T04:08:44.653Z,28.20
2022-12-03T04:11:31.766Z,29.30
2022-12-03T04:14:00.145Z,28.10
2022-12-03T04:16:28.688Z,27.30
2022-12-03T04:18:56.994Z,27.50
2022-12-03T04:21:44.139Z,28.50
2022-12-03T04:24:12.800Z,26.70
2022-12-03T04:26:59.921Z,27.30
2022-12-03T04:29:28.285Z,27.10
2022-12-03T04:32:14.983Z,26.90
2022-12-03T04:35:02.203Z,25.60
2022-12-03T04:37:30.500Z,26.10
2022-12-03T04:39:58.868Z,26.30
2022-12-03T04:42:27.081Z,25.60
2022-12-03T04:44:55.659Z,27.10
2022-12-03T04:47:24.219Z,26.60
2022-12-03T04:49:52.704Z,27.10
2022-12-03T04:52:21.269Z,26.40
2022-12-03T04:54:49.569Z,27.10
2022-12-03T04:57:18.243Z,27.30
2022-12-03T04:59:46.732Z,26.10
2022-12-03T05:02:14.923Z,25.70
2022-12-03T05:04:44.252Z,27.10
2022-12-03T05:07:12.716Z,26.50
2022-12-03T05:09:41.147Z,26.60
2022-12-03T05:12:09.367Z,26.80
2022-12-03T05:14:37.695Z,26.20
2022-12-03T05:17:06.030Z,24.80
2022-12-03T05:19:53.313Z,25.50
2022-12-03T05:22:21.965Z,27.30
2022-12-03T05:24:50.238Z,27.30
2022-12-03T05:27:23.330Z,27.60
2022-12-03T05:29:53.141Z,27.40
2022-12-03T05:32:21.541Z,26.30
2022-12-03T05:34:50.057Z,27.10
2022-12-03T05:37:18.444Z,27.50
2022-12-03T05:39:46.980Z,26.80
2022-12-03T05:42:34.019Z,27.70
2022-12-03T05:45:03.211Z,26.70
2022-12-03T05:47:31.424Z,27.20
2022-12-03T05:49:59.550Z,25.80
2022-12-03T05:52:27.986Z,27.10
2022-12-03T05:54:56.497Z,25.80
2022-12-03T05:57:25.040Z,28.30
2022-12-03T05:59:53.285Z,26.50
2022-12-03T06:02:21.583Z,25.00
2022-12-03T06:04:49.933Z,26.70
2022-12-03T06:07:18.198Z,26.70
2022-12-03T06:09:46.744Z,26.30
2022-12-03T06:12:15.199Z,26.90
2022-12-03T06:14:43.426Z,29.70
2022-12-03T06:17:11.665Z,28.70
2022-12-03T06:19:39.885Z,27.60
2022-12-03T06:22:08.131Z,26.10
2022-12-03T06:24:36.420Z,26.30
2022-12-03T06:27:05.440Z,27.60
2022-12-03T06:29:34.054Z,27.00
2022-12-03T06:32:02.982Z,25.30
2022-12-03T06:34:31.872Z,24.20
2022-12-03T06:37:00.229Z,24.30
2022-12-03T06:39:28.463Z,25.10
2022-12-03T06:41:56.654Z,23.90
2022-12-03T06:44:25.006Z,24.80
2022-12-03T06:46:53.502Z,23.50
2022-12-03T06:49:21.681Z,22.80
2022-12-03T06:51:50.427Z,22.70
2022-12-03T06:54:18.723Z,23.00
2022-12-03T06:56:47.257Z,24.50
2022-12-03T06:59:15.754Z,23.10
2022-12-03T07:01:44.353Z,24.10
2022-12-03T07:04:13.021Z,21.70
2022-12-03T07:06:41.373Z,23.60
2022-12-03T07:09:09.614Z,23.80
2022-12-03T07:11:40.658Z,22.20
2022-12-03T07:14:11.346Z,23.30
2022-12-03T07:16:40.315Z,21.80
2022-12-03T07:19:09.849Z,21.30
2022-12-03T07:21:39.064Z,22.20
2022-12-03T07:24:07.453Z,22.90
2022-12-03T07:26:35.681Z,22.60
2022-12-03T07:29:04.436Z,23.10
2022-12-03T07:31:32.692Z,23.70
2022-12-03T07:34:02.309Z,23.00
2022-12-03T07:36:30.852Z,23.40
2022-12-03T07:38:59.223Z,24.00
2022-12-03T07:41:27.505Z,22.90
2022-12-03T07:43:55.900Z,23.50
2022-12-03T07:46:24.175Z,24.00
2022-12-03T07:48:52.431Z,22.50
2022-12-03T07:51:20.732Z,23.20
2022-12-03T07:53:48.965Z,22.10
2022-12-03T07:56:17.475Z,24.70
2022-12-03T07:58:45.783Z,22.80
2022-12-03T08:01:14.938Z,22.80
2022-12-03T08:03:43.161Z,23.30
2022-12-03T08:06:11.781Z,23.30
2022-12-03T08:08:39.976Z,21.50
2022-12-03T08:11:13.962Z,22.10
2022-12-03T08:13:42.599Z,23.70
2022-12-03T08:16:22.366Z,23.10
2022-12-03T08:18:54.402Z,22.40
2022-12-03T08:21:23.397Z,23.60
2022-12-03T08:23:52.045Z,22.40
2022-12-03T08:26:20.233Z,22.40
2022-12-03T08:28:48.669Z,22.80
2022-12-03T08:31:32.771Z,21.90
2022-12-03T08:34:20.409Z,22.80
2022-12-03T08:36:52.274Z,22.40
2022-12-03T08:39:30.785Z,22.90
2022-12-03T08:42:23.846Z,23.40
2022-12-03T08:44:53.121Z,23.30
2022-12-03T08:47:24.106Z,21.70
2022-12-03T08:50:06.149Z,23.00
2022-12-03T08:52:34.866Z,21.70
2022-12-03T08:55:32.070Z,21.70
2022-12-03T08:58:00.453Z,22.90
2022-12-03T09:00:28.880Z,21.40
2022-12-03T09:03:00.851Z,21.50
2022-12-03T09:05:32.546Z,20.90
2022-12-03T09:08:00.962Z,22.50
2022-12-03T09:10:29.320Z,20.60
2022-12-03T09:12:57.611Z,21.60
2022-12-03T09:15:25.869Z,20.50
2022-12-03T09:17:54.832Z,20.40
2022-12-03T09:20:23.219Z,19.90
2022-12-03T09:22:51.392Z,20.20
2022-12-03T09:25:19.800Z,20.10
2022-12-03T09:27:47.983Z,20.70
2022-12-03T09:30:16.496Z,19.70
2022-12-03T09:32:44.885Z,19.30
2022-12-03T09:35:13.307Z,20.00
2022-12-03T09:37:41.508Z,21.00
2022-12-03T09:40:10.962Z,21.00
2022-12-03T09:42:39.640Z,19.80
2022-12-03T09:45:14.670Z,19.50
2022-12-03T09:47:52.530Z,20.40
2022-12-03T09:50:24.227Z,19.70
2022-12-03T09:52:59.151Z,19.50
2022-12-03T09:55:29.107Z,17.40
2022-12-03T09:57:57.903Z,17.70
2022-12-03T10:00:29.558Z,18.80
2022-12-03T10:03:02.526Z,17.60
2022-12-03T10:05:31.278Z,17.70
2022-12-03T10:08:09.152Z,19.60
2022-12-03T10:10:40.319Z,18.70
2022-12-03T10:13:15.213Z,17.80
2022-12-03T10:15:43.644Z,20.30
2022-12-03T10:18:25.381Z,19.70
2022-12-03T10:20:54.238Z,18.90
2022-12-03T10:23:29.844Z,20.80
2022-12-03T10:26:03.950Z,19.10
2022-12-03T10:28:40.373Z,20.90
2022-12-03T10:31:11.859Z,20.70
2022-12-03T10:33:44.833Z,22.30
2022-12-03T10:36:21.336Z,20.50
2022-12-03T10:39:14.589Z,20.80
2022-12-03T10:41:44.761Z,20.70
2022-12-03T10:44:21.709Z,20.60
2022-12-03T10:47:10.978Z,21.40
2022-12-03T10:49:41.061Z,21.50
2022-12-03T10:52:25.867Z,21.90
2022-12-03T10:54:54.832Z,21.50
2022-12-03T10:57:24.936Z,22.20
2022-12-03T10:59:53.148Z,21.80
2022-12-03T11:02:24.201Z,22.70
2022-12-03T11:04:52.835Z,22.30
2022-12-03T11:07:22.749Z,22.60
2022-12-03T11:09:55.447Z,23.90
2022-12-03T11:12:27.274Z,20.50
2022-12-03T11:14:56.642Z,21.50
2022-12-03T11:17:25.391Z,21.20
2022-12-03T11:19:53.893Z,22.80
2022-12-03T11:22:40.159Z,24.50
2022-12-03T11:25:26.878Z,23.60
2022-12-03T11:28:10.611Z,26.20
2022-12-03T11:30:51.410Z,25.60
2022-12-03T11:33:34.195Z,25.80
2022-12-03T11:36:02.622Z,27.50
2022-12-03T11:39:00.134Z,27.00
2022-12-03T11:41:31.641Z,26.10
2022-12-03T11:44:25.022Z,25.50
2022-12-03T11:46:54.180Z,24.70
2022-12-03T11:49:38.443Z,25.40
2022-12-03T11:52:22.123Z,25.30
2022-12-03T11:54:54.913Z,24.90
2022-12-03T11:57:28.654Z,26.00
2022-12-03T12:00:04.784Z,27.10
2022-12-03T12:02:40.391Z,27.30
2022-12-03T12:05:20.535Z,26.30
2022-12-03T12:07:49.869Z,24.60
2022-12-03T12:10:42.115Z,24.80
2022-12-03T12:13:25.433Z,24.50
2022-12-03T12:15:54.912Z,24.10
2022-12-03T12:18:40.168Z,24.40
2022-12-03T12:21:42.907Z,24.00
2022-12-03T12:27:02.824Z,23.10
2022-12-03T12:29:31.100Z,21.80
2022-12-03T12:32:15.441Z,23.60
2022-12-03T12:34:49.246Z,23.40
2022-12-03T12:37:19.984Z,23.40
2022-12-03T12:39:48.804Z,22.40
2022-12-03T12:42:33.048Z,21.60
2022-12-03T12:45:07.483Z,23.50
2022-12-03T12:47:36.969Z,19.80
2022-12-03T12:50:10.751Z,22.00
2022-12-03T12:52:50.692Z,21.70
2022-12-03T12:55:20.648Z,20.50
2022-12-03T12:57:49.166Z,21.30
2022-12-03T13:00:23.520Z,22.20
2022-12-03T13:02:59.913Z,21.10
2022-12-03T13:05:40.943Z,22.70
2022-12-03T13:08:30.822Z,21.00
2022-12-03T13:11:01.865Z,23.10
2022-12-03T13:13:41.665Z,23.90
2022-12-03T13:16:18.562Z,24.90
2022-12-03T13:18:49.786Z,24.50
2022-12-03T13:21:24.774Z,26.20
2022-12-03T13:23:57.261Z,26.30
2022-12-03T13:29:18.604Z,27.50
2022-12-03T13:31:58.375Z,27.00
2022-12-03T13:34:31.771Z,27.90
2022-12-03T13:37:02.037Z,26.50
2022-12-03T13:39:38.592Z,27.40
2022-12-03T13:42:45.576Z,24.60
2022-12-03T13:45:14.755Z,25.70
2022-12-03T13:47:46.711Z,26.20
2022-12-03T13:50:31.428Z,26.40
2022-12-03T13:53:07.867Z,27.80
2022-12-03T13:55:39.685Z,27.60
2022-12-03T13:58:07.826Z,27.90
2022-12-03T14:00:36.615Z,28.10
2022-12-03T14:03:05.211Z,29.10
2022-12-03T14:05:33.443Z,29.80
2022-12-03T14:08:02.468Z,30.20
2022-12-03T14:10:31.128Z,27.60
2022-12-03T14:12:59.354Z,29.60
2022-12-03T14:15:27.771Z,30.50
2022-12-03T14:17:56.315Z,29.00
2022-12-03T14:20:24.534Z,29.10
2022-12-03T14:22:57.735Z,30.00
2022-12-03T14:25:27.654Z,27.50
2022-12-03T14:27:55.936Z,27.80
2022-12-03T14:30:24.167Z,27.10
2022-12-03T14:32:52.411Z,28.20
2022-12-03T14:35:20.925Z,28.90
2022-12-03T14:37:49.124Z,30.10
2022-12-03T14:40:21.472Z,27.80
2022-12-03T14:42:50.574Z,27.50
2022-12-03T14:45:20.435Z,29.00
2022-12-03T14:47:48.624Z,28.20
2022-12-03T14:50:16.883Z,28.60
2022-12-03T14:52:45.449Z,28.70
2022-12-03T14:55:13.654Z,27.80
2022-12-03T14:57:42.119Z,27.70
2022-12-03T15:00:11.524Z,27.90
2022-12-03T15:02:39.783Z,29.90
2022-12-03T15:05:08.399Z,26.60
2022-12-03T15:07:39.050Z,27.00
2022-12-03T15:10:08.127Z,28.20
2022-12-03T15:12:36.325Z,25.70
2022-12-03T15:15:04.895Z,26.00
2022-12-03T15:17:33.157Z,24.00
2022-12-03T15:20:01.368Z,25.30
2022-12-03T15:22:29.628Z,27.20
2022-12-03T15:24:57.884Z,27.10
2022-12-03T15:27:26.488Z,25.70
2022-12-03T15:29:55.160Z,27.30
2022-12-03T15:32:23.830Z,26.90
2022-12-03T15:34:52.141Z,27.20
2022-12-03T15:37:20.492Z,27.00
2022-12-03T15:39:49.104Z,26.20
2022-12-03T15:42:17.463Z,27.90
2022-12-03T15:44:47.458Z,26.40
2022-12-03T15:47:15.645Z,26.20
2022-12-03T15:49:43.906Z,26.70
2022-12-03T15:52:12.212Z,26.70
2022-12-03T15:54:40.593Z,26.10
2022-12-03T15:57:08.849Z,27.30
2022-12-03T15:59:37.173Z,27.60
2022-12-03T16:02:05.525Z,29.30
2022-12-03T16:04:33.972Z,28.90
2022-12-03T16:07:02.141Z,29.00
2022-12-03T16:09:30.495Z,28.90
2022-12-03T16:11:58.963Z,28.00
2022-12-03T16:14:27.184Z,28.80
2022-12-03T16:16:55.442Z,29.10
2022-12-03T16:19:23.547Z,30.60
2022-12-03T16:21:51.729Z,29.00
2022-12-03T16:24:19.975Z,30.20
2022-12-03T16:26:48.249Z,28.10
2022-12-03T16:29:16.842Z,28.70
2022-12-03T16:31:45.997Z,28.40
2022-12-03T16:34:14.599Z,30.30
2022-12-03T16:36:42.891Z,30.20
2022-12-03T16:39:11.892Z,29.30
2022-12-03T16:41:40.074Z,28.70
2022-12-03T16:44:09.851Z,29.70
2022-12-03T16:46:38.082Z,30.90
2022-12-03T16:49:08.122Z,29.10
2022-12-03T16:51:36.355Z,32.30
2022-12-03T16:54:04.597Z,31.70
2022-12-03T16:56:32.845Z,31.60
2022-12-03T16:59:01.082Z,31.70
2022-12-03T17:01:29.609Z,32.40
2022-12-03T17:03:57.896Z,32.30
2022-12-03T17:06:26.153Z,34.20
2022-12-03T17:08:54.572Z,34.80
2022-12-03T17:11:22.751Z,34.70
2022-12-03T17:13:51.094Z,35.00
2022-12-03T17:16:19.459Z,37.30
2022-12-03T17:18:48.011Z,38.00
2022-12-03T17:21:17.138Z,42.20
2022-12-03T17:23:48.881Z,41.00
2022-12-03T17:26:18.453Z,45.10
2022-12-03T17:28:47.034Z,49.10
2022-12-03T17:31:15.329Z,52.90
2022-12-03T17:33:43.740Z,53.40
2022-12-03T17:36:12.238Z,55.50
2022-12-03T17:38:40.746Z,56.90
2022-12-03T17:41:09.064Z,59.50
2022-12-03T17:43:37.309Z,58.10
2022-12-03T17:46:06.735Z,56.70
2022-12-03T17:48:35.606Z,56.70
2022-12-03T17:51:04.185Z,54.00
2022-12-03T17:53:32.621Z,52.40
2022-12-03T17:56:00.865Z,49.10
2022-12-03T17:58:29.182Z,51.50
2022-12-03T18:01:02.433Z,49.30
2022-12-03T18:03:31.680Z,46.60
2022-12-03T18:06:00.569Z,43.40
2022-12-03T18:08:28.744Z,42.10
2022-12-03T18:10:56.894Z,41.20
2022-12-03T18:13:25.480Z,39.20
2022-12-03T18:15:53.795Z,36.40
2022-12-03T18:18:22.044Z,35.40
2022-12-03T18:20:53.089Z,33.90
2022-12-03T18:23:21.275Z,34.70
2022-12-03T18:25:49.653Z,34.90
2022-12-03T18:28:17.833Z,34.60
2022-12-03T18:30:52.164Z,35.30
2022-12-03T18:33:21.572Z,33.80
2022-12-03T18:35:53.896Z,32.60
2022-12-03T18:40:55.385Z,32.60
2022-12-03T18:43:25.992Z,33.10
2022-12-03T18:45:54.497Z,32.80
2022-12-03T18:48:22.736Z,32.10
2022-12-03T18:50:51.183Z,31.30
2022-12-03T18:53:19.709Z,32.90
2022-12-03T18:55:48.036Z,31.70
2022-12-03T18:58:20.048Z,31.40
2022-12-03T19:00:48.337Z,32.10
2022-12-03T19:03:16.631Z,31.50
2022-12-03T19:05:45.218Z,31.10
2022-12-03T19:08:15.153Z,30.80
2022-12-03T19:10:43.519Z,31.20
2022-12-03T19:13:12.267Z,33.50
2022-12-03T19:15:41.145Z,31.40
2022-12-03T19:18:09.364Z,34.00
2022-12-03T19:20:40.970Z,33.10
2022-12-03T19:23:09.608Z,33.90
2022-12-03T19:25:37.776Z,33.50
2022-12-03T19:28:06.343Z,32.30
2022-12-03T19:30:34.843Z,31.70
2022-12-03T19:33:03.117Z,31.80
2022-12-03T19:35:32.891Z,33.30
2022-12-03T19:38:01.335Z,32.40
2022-12-03T19:40:29.996Z,32.30
2022-12-03T19:42:58.244Z,33.80
2022-12-03T19:45:26.719Z,33.90
2022-12-03T19:47:55.193Z,31.40
2022-12-03T19:50:23.897Z,32.30
2022-12-03T19:52:52.213Z,32.50
2022-12-03T19:55:20.616Z,34.50
2022-12-03T19:57:49.007Z,35.00
2022-12-03T20:00:17.815Z,33.40
2022-12-03T20:02:49.194Z,32.30
2022-12-03T20:05:17.900Z,33.70
2022-12-03T20:07:46.167Z,33.00
2022-12-03T20:10:14.464Z,32.00
2022-12-03T20:12:42.790Z,32.40
2022-12-03T20:15:13.424Z,33.50
2022-12-03T20:17:41.614Z,31.40
2022-12-03T20:20:10.363Z,31.40
2022-12-03T20:22:38.714Z,31.90
2022-12-03T20:25:07.516Z,33.70
2022-12-03T20:27:36.254Z,31.80
2022-12-03T20:30:05.390Z,33.50
2022-12-03T20:32:39.405Z,33.60
2022-12-03T20:35:12.301Z,34.30
2022-12-03T20:37:40.648Z,31.80
2022-12-03T20:40:09.367Z,32.40
2022-12-03T20:42:37.695Z,34.10
2022-12-03T20:45:06.663Z,33.00
2022-12-03T20:47:34.893Z,33.60
2022-12-03T20:50:03.240Z,32.10
2022-12-03T20:52:31.476Z,32.60
2022-12-03T20:54:59.899Z,33.00
2022-12-03T20:57:28.206Z,33.30
2022-12-03T20:59:56.417Z,33.40
2022-12-03T21:02:25.277Z,31.90
2022-12-03T21:04:54.019Z,30.70
2022-12-03T21:07:22.217Z,32.80
2022-12-03T21:09:50.836Z,34.30
2022-12-03T21:12:19.369Z,34.10
2022-12-03T21:14:47.575Z,33.30
2022-12-03T21:17:15.866Z,33.70
2022-12-03T21:19:44.416Z,31.60
2022-12-03T21:22:12.836Z,31.80
2022-12-03T21:24:42.953Z,33.70
2022-12-03T21:27:12.791Z,33.20
2022-12-03T21:29:43.023Z,32.80
2022-12-03T21:32:11.179Z,35.00
2022-12-03T21:34:41.911Z,32.90
2022-12-03T21:37:10.203Z,32.90
2022-12-03T21:39:38.339Z,35.30
2022-12-03T21:42:19.223Z,32.30
2022-12-03T21:44:54.842Z,35.10
2022-12-03T21:47:23.225Z,34.90
2022-12-03T21:49:51.490Z,34.40
2022-12-03T21:52:19.897Z,34.70
2022-12-03T21:54:48.379Z,34.90
2022-12-03T21:57:16.711Z,36.40
2022-12-03T21:59:45.093Z,36.50
2022-12-03T22:02:13.504Z,37.70
2022-12-03T22:04:41.867Z,36.30
2022-12-03T22:07:10.048Z,37.00
2022-12-03T22:09:38.714Z,38.40
2022-12-03T22:12:07.067Z,37.20
2022-12-03T22:14:35.314Z,37.40
2022-12-03T22:17:04.149Z,36.20
2022-12-03T22:19:32.707Z,37.70
2022-12-03T22:22:00.914Z,38.70
2022-12-03T22:24:29.528Z,36.00
2022-12-03T22:26:57.854Z,35.30
2022-12-03T22:29:26.108Z,36.80
2022-12-03T22:31:54.379Z,37.20
2022-12-03T22:34:22.696Z,35.80
2022-12-03T22:36:51.129Z,38.40
2022-12-03T22:39:19.437Z,36.10
2022-12-03T22:41:47.635Z,35.90
2022-12-03T22:44:15.869Z,35.20
2022-12-03T22:46:44.405Z,36.80
2022-12-03T22:49:13.239Z,36.30
2022-12-03T22:51:45.767Z,35.50
2022-12-03T22:54:18.164Z,37.80
2022-12-03T22:56:49.385Z,37.00
2022-12-03T22:59:18.076Z,34.40
2022-12-03T23:01:46.346Z,37.00
2022-12-03T23:04:14.848Z,36.50
2022-12-03T23:06:43.745Z,36.20
2022-12-03T23:09:11.952Z,35.10
2022-12-03T23:11:40.548Z,36.00
2022-12-03T23:14:08.800Z,35.20
2022-12-03T23:16:37.255Z,35.20
2022-12-03T23:19:05.743Z,36.10
2022-12-03T23:21:34.925Z,35.10
2022-12-03T23:24:05.390Z,36.50
2022-12-03T23:26:36.397Z,36.60
2022-12-03T23:29:06.197Z,35.60
2022-12-03T23:31:34.982Z,37.80
2022-12-03T23:34:04.204Z,36.30
2022-12-03T23:36:33.515Z,36.30
2022-12-03T23:39:01.816Z,36.60
2022-12-03T23:41:30.184Z,38.60
2022-12-03T23:43:58.480Z,38.80
2022-12-03T23:46:27.604Z,38.40
2022-12-03T23:48:58.798Z,37.60
2022-12-03T23:51:27.486Z,37.40
2022-12-03T23:53:56.132Z,37.60
2022-12-03T23:56:27.548Z,37.10
2022-12-03T23:58:57.279Z,36.00
